createdAt,value
2022-10-12T06:49:33.378Z,1016.97
2022-10-12T06:50:34.379Z,1016.92
2022-10-12T06:51:34.381Z,1016.95
2022-10-12T06:52:34.359Z,1016.95
2022-10-12T06:53:34.361Z,1016.95
2022-10-12T06:54:34.314Z,1016.96
2022-10-12T06:55:34.242Z,1016.94
2022-10-12T06:56:34.253Z,1016.99
2022-10-12T06:57:34.257Z,1016.93
2022-10-12T06:58:34.238Z,1016.93
2022-10-12T06:59:34.330Z,1016.91
2022-10-12T07:00:34.223Z,1016.84
2022-10-12T07:01:34.257Z,1016.86
2022-10-12T07:02:34.208Z,1016.83
2022-10-12T07:03:34.196Z,1016.87
2022-10-12T07:04:34.241Z,1016.82
2022-10-12T07:05:34.183Z,1016.77
2022-10-12T07:06:34.147Z,1016.79
2022-10-12T07:07:34.194Z,1016.78
2022-10-12T07:08:34.130Z,1016.80
2022-10-12T07:09:34.140Z,1016.79
2022-10-12T07:10:34.143Z,1016.83
2022-10-12T07:11:34.094Z,1016.83
2022-10-12T07:12:34.075Z,1016.84
2022-10-12T07:13:34.095Z,1016.82
2022-10-12T07:14:34.096Z,1016.79
2022-10-12T07:15:34.054Z,1016.82
2022-10-12T07:16:34.017Z,1016.81
2022-10-12T07:17:34.022Z,1016.82
2022-10-12T07:18:34.023Z,1016.84
2022-10-12T07:19:34.068Z,1016.90
2022-10-12T07:20:34.003Z,1016.91
2022-10-12T07:21:34.028Z,1016.91
2022-10-12T07:22:33.981Z,1016.93
2022-10-12T07:23:33.988Z,1016.89
2022-10-12T07:24:33.969Z,1016.90
2022-10-12T07:25:33.940Z,1016.93
2022-10-12T07:26:33.928Z,1016.93
2022-10-12T07:27:33.934Z,1016.94
2022-10-12T07:28:34.005Z,1016.95
2022-10-12T07:29:33.969Z,1016.96
2022-10-12T07:30:33.947Z,1016.96
2022-10-12T07:31:33.852Z,1016.96
2022-10-12T07:32:33.897Z,1016.94
2022-10-12T07:33:33.900Z,1016.97
2022-10-12T07:34:33.864Z,1016.93
2022-10-12T07:35:33.883Z,1016.98
2022-10-12T07:36:57.565Z,1016.90
2022-10-12T07:37:33.862Z,1016.92
2022-10-12T07:38:33.800Z,1016.90
2022-10-12T07:39:33.817Z,1016.93
2022-10-12T07:40:33.776Z,1016.92
2022-10-12T07:41:33.799Z,1016.89
2022-10-12T07:42:33.762Z,1016.90
2022-10-12T07:43:33.747Z,1016.95
2022-10-12T07:44:33.770Z,1016.94
2022-10-12T07:45:33.767Z,1017.00
2022-10-12T07:46:33.697Z,1017.02
2022-10-12T07:47:33.694Z,1016.99
2022-10-12T07:48:33.705Z,1017.01
2022-10-12T07:49:33.675Z,1016.99
2022-10-12T07:50:33.660Z,1016.97
2022-10-12T07:51:33.659Z,1017.00
2022-10-12T07:52:33.618Z,1016.97
2022-10-12T07:53:33.626Z,1016.98
2022-10-12T07:54:33.680Z,1016.98
2022-10-12T07:55:33.648Z,1017.02
2022-10-12T07:56:33.685Z,1017.00
2022-10-12T07:57:33.590Z,1016.99
2022-10-12T07:58:33.581Z,1017.00
2022-10-12T07:59:33.587Z,1016.96
2022-10-12T08:00:33.530Z,1016.97
2022-10-12T08:01:33.555Z,1016.98
2022-10-12T08:02:33.520Z,1017.02
2022-10-12T08:03:33.510Z,1016.96
2022-10-12T08:04:33.532Z,1016.97
2022-10-12T08:05:33.475Z,1016.98
2022-10-12T08:06:33.486Z,1016.94
2022-10-12T08:07:33.501Z,1016.91
2022-10-12T08:08:33.499Z,1016.96
2022-10-12T08:09:33.467Z,1016.95
2022-10-12T08:10:33.517Z,1016.98
2022-10-12T08:11:33.433Z,1016.96
2022-10-12T08:12:33.392Z,1016.98
2022-10-12T08:13:33.400Z,1016.98
2022-10-12T08:14:33.408Z,1016.95
2022-10-12T08:15:33.388Z,1016.97
2022-10-12T08:16:33.358Z,1016.96
2022-10-12T08:17:33.379Z,1016.99
2022-10-12T08:18:33.405Z,1016.99
2022-10-12T08:19:35.449Z,1016.99
2022-10-12T08:20:33.330Z,1016.95
2022-10-12T08:21:33.297Z,1016.96
2022-10-12T08:22:33.309Z,1016.99
2022-10-12T08:23:33.272Z,1016.98
2022-10-12T08:24:33.398Z,1016.99
2022-10-12T08:25:33.273Z,1016.95
2022-10-12T08:26:33.261Z,1016.98
2022-10-12T08:27:33.225Z,1017.02
2022-10-12T08:28:33.283Z,1016.96
2022-10-12T08:29:33.247Z,1016.95
2022-10-12T08:30:33.317Z,1016.90
2022-10-12T08:31:33.215Z,1016.92
2022-10-12T08:32:33.228Z,1016.93
2022-10-12T08:33:33.179Z,1016.90
2022-10-12T08:34:33.191Z,1016.92
2022-10-12T08:35:33.172Z,1016.90
2022-10-12T08:36:33.141Z,1016.92
2022-10-12T08:37:33.125Z,1016.91
2022-10-12T08:38:33.142Z,1016.94
2022-10-12T08:39:33.132Z,1016.94
2022-10-12T08:40:33.106Z,1016.94
2022-10-12T08:41:33.148Z,1016.88
2022-10-12T08:42:33.182Z,1016.85
2022-10-12T08:43:33.114Z,1016.85
2022-10-12T08:44:33.126Z,1016.85
2022-10-12T08:45:33.039Z,1016.84
2022-10-12T08:46:33.050Z,1016.81
2022-10-12T08:47:33.017Z,1016.82
2022-10-12T08:48:33.031Z,1016.85
2022-10-12T08:49:33.077Z,1016.82
2022-10-12T08:50:32.977Z,1016.76
2022-10-12T08:51:33.009Z,1016.78
2022-10-12T08:52:32.967Z,1016.76
2022-10-12T08:53:32.997Z,1016.76
2022-10-12T08:54:32.947Z,1016.79
2022-10-12T08:55:32.932Z,1016.77
2022-10-12T08:56:32.918Z,1016.76
2022-10-12T08:57:32.942Z,1016.77
2022-10-12T08:58:32.940Z,1016.80
2022-10-12T08:59:32.926Z,1016.77
2022-10-12T09:01:32.966Z,1016.73
2022-10-12T09:02:32.853Z,1016.74
2022-10-12T09:03:32.894Z,1016.75
2022-10-12T09:04:32.861Z,1016.75
2022-10-12T09:05:32.872Z,1016.77
2022-10-12T09:06:32.842Z,1016.78
2022-10-12T09:07:32.799Z,1016.74
2022-10-12T09:08:32.783Z,1016.75
2022-10-12T09:09:32.792Z,1016.78
2022-10-12T09:10:32.776Z,1016.71
2022-10-12T09:11:32.796Z,1016.78
2022-10-12T09:12:32.728Z,1016.74
2022-10-12T09:13:32.764Z,1016.67
2022-10-12T09:14:32.773Z,1016.67
2022-10-12T09:15:32.688Z,1016.65
2022-10-12T09:16:32.750Z,1016.65
2022-10-12T09:17:32.732Z,1016.62
2022-10-12T09:18:35.898Z,1016.63
2022-10-12T09:19:32.745Z,1016.67
2022-10-12T09:20:32.691Z,1016.68
2022-10-12T09:21:32.676Z,1016.65
2022-10-12T09:22:32.639Z,1016.69
2022-10-12T09:23:32.623Z,1016.69
2022-10-12T09:24:32.686Z,1016.68
2022-10-12T09:25:32.607Z,1016.67
2022-10-12T09:26:32.583Z,1016.66
2022-10-12T09:27:32.624Z,1016.69
2022-10-12T09:28:32.918Z,1016.62
2022-10-12T09:29:32.889Z,1016.65
2022-10-12T09:30:32.535Z,1016.59
2022-10-12T09:31:32.588Z,1016.62
2022-10-12T09:32:32.535Z,1016.64
2022-10-12T09:33:32.549Z,1016.65
2022-10-12T09:34:32.541Z,1016.62
2022-10-12T09:35:32.509Z,1016.68
2022-10-12T09:36:32.497Z,1016.62
2022-10-12T09:37:32.499Z,1016.65
2022-10-12T09:38:32.458Z,1016.60
2022-10-12T09:39:32.474Z,1016.64
2022-10-12T09:40:32.454Z,1016.63
2022-10-12T09:41:32.418Z,1016.64
2022-10-12T09:42:32.472Z,1016.63
2022-10-12T09:43:32.407Z,1016.65
2022-10-12T09:44:32.393Z,1016.62
2022-10-12T09:45:32.399Z,1016.61
2022-10-12T09:46:32.339Z,1016.60
2022-10-12T09:47:32.341Z,1016.61
2022-10-12T09:48:32.349Z,1016.60
2022-10-12T09:49:32.389Z,1016.62
2022-10-12T09:50:32.325Z,1016.56
2022-10-12T09:51:32.320Z,1016.57
2022-10-12T09:52:32.317Z,1016.59
2022-10-12T09:53:32.306Z,1016.54
2022-10-12T09:54:32.384Z,1016.55
2022-10-12T09:55:32.260Z,1016.58
2022-10-12T09:56:32.287Z,1016.60
2022-10-12T09:57:32.243Z,1016.57
2022-10-12T09:58:32.225Z,1016.55
2022-10-12T09:59:32.222Z,1016.51
2022-10-12T10:00:32.233Z,1016.53
2022-10-12T10:01:32.339Z,1016.57
2022-10-12T10:02:32.175Z,1016.57
2022-10-12T10:03:32.174Z,1016.55
2022-10-12T10:04:32.206Z,1016.53
2022-10-12T10:05:32.162Z,1016.56
2022-10-12T10:06:32.123Z,1016.52
2022-10-12T10:07:32.121Z,1016.49
2022-10-12T10:08:32.134Z,1016.50
2022-10-12T10:09:32.143Z,1016.48
2022-10-12T10:10:32.135Z,1016.46
2022-10-12T10:11:32.106Z,1016.50
2022-10-12T10:12:32.093Z,1016.49
2022-10-12T10:13:32.047Z,1016.51
2022-10-12T10:14:32.117Z,1016.48
2022-10-12T10:15:32.079Z,1016.52
2022-10-12T10:16:32.019Z,1016.47
2022-10-12T10:17:32.017Z,1016.45
2022-10-12T10:18:31.988Z,1016.44
2022-10-12T10:19:32.087Z,1016.38
2022-10-12T10:20:32.008Z,1016.37
2022-10-12T10:21:31.961Z,1016.37
2022-10-12T10:22:31.958Z,1016.36
2022-10-12T10:23:31.942Z,1016.35
2022-10-12T10:24:31.944Z,1016.39
2022-10-12T10:25:31.935Z,1016.38
2022-10-12T10:26:31.933Z,1016.35
2022-10-12T10:27:31.930Z,1016.40
2022-10-12T10:28:31.975Z,1016.38
2022-10-12T10:29:31.896Z,1016.40
2022-10-12T10:30:35.163Z,1016.35
2022-10-12T10:31:31.923Z,1016.34
2022-10-12T10:32:31.881Z,1016.39
2022-10-12T10:33:31.855Z,1016.39
2022-10-12T10:34:31.893Z,1016.37
2022-10-12T10:35:31.841Z,1016.36
2022-10-12T10:36:31.857Z,1016.39
2022-10-12T10:37:31.799Z,1016.36
2022-10-12T10:38:31.787Z,1016.31
2022-10-12T10:39:31.809Z,1016.30
2022-10-12T10:40:31.761Z,1016.31
2022-10-12T10:41:31.751Z,1016.32
2022-10-12T10:42:31.742Z,1016.33
2022-10-12T10:43:31.742Z,1016.37
2022-10-12T10:44:31.812Z,1016.32
2022-10-12T10:45:31.697Z,1016.35
2022-10-12T10:46:31.698Z,1016.30
2022-10-12T10:47:31.701Z,1016.28
2022-10-12T10:48:31.668Z,1016.28
2022-10-12T10:49:31.670Z,1016.23
2022-10-12T10:50:31.641Z,1016.27
2022-10-12T10:51:31.614Z,1016.26
2022-10-12T10:52:31.630Z,1016.29
2022-10-12T10:53:31.634Z,1016.23
2022-10-12T10:54:31.634Z,1016.21
2022-10-12T10:55:31.588Z,1016.21
2022-10-12T10:56:31.582Z,1016.22
2022-10-12T10:57:31.580Z,1016.23
2022-10-12T10:58:31.574Z,1016.24
2022-10-12T10:59:31.594Z,1016.24
2022-10-12T11:00:39.123Z,1016.24
2022-10-12T11:01:31.642Z,1016.21
2022-10-12T11:02:31.548Z,1016.15
2022-10-12T11:03:31.518Z,1016.19
2022-10-12T11:04:31.666Z,1016.13
2022-10-12T11:05:31.504Z,1016.13
2022-10-12T11:06:31.488Z,1016.13
2022-10-12T11:07:31.485Z,1016.10
2022-10-12T11:08:31.439Z,1016.10
2022-10-12T11:09:31.449Z,1016.11
2022-10-12T11:10:31.454Z,1016.09
2022-10-12T11:11:31.436Z,1016.05
2022-10-12T11:12:31.661Z,1016.03
2022-10-12T11:13:31.398Z,1016.05
2022-10-12T11:14:31.396Z,1016.02
2022-10-12T11:15:31.458Z,1016.05
2022-10-12T11:16:31.358Z,1016.04
2022-10-12T11:17:31.339Z,1016.00
2022-10-12T11:18:31.358Z,1015.97
2022-10-12T11:19:31.350Z,1015.98
2022-10-12T11:20:31.341Z,1015.99
2022-10-12T11:21:31.311Z,1016.00
2022-10-12T11:22:31.324Z,1015.98
2022-10-12T11:23:31.302Z,1015.96
2022-10-12T11:24:31.307Z,1015.94
2022-10-12T11:25:31.266Z,1015.94
2022-10-12T11:26:31.242Z,1015.97
2022-10-12T11:27:31.268Z,1015.94
2022-10-12T11:28:31.324Z,1015.94
2022-10-12T11:29:31.259Z,1015.90
2022-10-12T11:30:31.204Z,1015.88
2022-10-12T11:31:31.229Z,1015.85
2022-10-12T11:32:31.165Z,1015.83
2022-10-12T11:33:31.193Z,1015.85
2022-10-12T11:34:31.188Z,1015.83
2022-10-12T11:35:31.175Z,1015.86
2022-10-12T11:36:31.123Z,1015.82
2022-10-12T11:37:31.124Z,1015.81
2022-10-12T11:38:31.102Z,1015.80
2022-10-12T11:39:31.138Z,1015.77
2022-10-12T11:40:55.588Z,1015.77
2022-10-12T11:41:35.369Z,1015.79
2022-10-12T11:42:31.081Z,1015.75
2022-10-12T11:43:31.067Z,1015.79
2022-10-12T11:44:31.071Z,1015.71
2022-10-12T11:45:31.037Z,1015.71
2022-10-12T11:46:31.004Z,1015.69
2022-10-12T11:47:31.041Z,1015.64
2022-10-12T11:48:31.038Z,1015.61
2022-10-12T11:49:30.997Z,1015.56
2022-10-12T11:50:31.004Z,1015.57
2022-10-12T11:51:30.989Z,1015.61
2022-10-12T11:52:30.994Z,1015.58
2022-10-12T11:53:30.936Z,1015.56
2022-10-12T11:54:30.985Z,1015.54
2022-10-12T11:55:30.916Z,1015.49
2022-10-12T11:56:30.995Z,1015.49
2022-10-12T11:57:30.945Z,1015.51
2022-10-12T11:58:55.859Z,1015.53
2022-10-12T11:59:30.898Z,1015.49
2022-10-12T12:00:30.901Z,1015.53
2022-10-12T12:01:30.877Z,1015.52
2022-10-12T12:02:30.859Z,1015.48
2022-10-12T12:03:30.893Z,1015.55
2022-10-12T12:04:46.371Z,1015.51
2022-10-12T12:05:30.840Z,1015.55
2022-10-12T12:06:30.801Z,1015.51
2022-10-12T12:07:30.821Z,1015.53
2022-10-12T12:08:30.838Z,1015.50
2022-10-12T12:09:30.802Z,1015.53
2022-10-12T12:10:30.775Z,1015.56
2022-10-12T12:11:30.734Z,1015.58
2022-10-12T12:12:30.716Z,1015.54
2022-10-12T12:13:30.745Z,1015.55
2022-10-12T12:14:30.740Z,1015.48
2022-10-12T12:15:30.720Z,1015.51
2022-10-12T12:16:30.692Z,1015.44
2022-10-12T12:17:32.187Z,1015.49
2022-10-12T12:18:30.694Z,1015.45
2022-10-12T12:19:30.696Z,1015.43
2022-10-12T12:20:30.649Z,1015.40
2022-10-12T12:21:30.655Z,1015.42
2022-10-12T12:22:30.640Z,1015.43
2022-10-12T12:23:30.630Z,1015.41
2022-10-12T12:24:30.726Z,1015.37
2022-10-12T12:25:30.581Z,1015.38
2022-10-12T12:26:30.583Z,1015.36
2022-10-12T12:27:30.592Z,1015.36
2022-10-12T12:28:30.578Z,1015.33
2022-10-12T12:29:30.572Z,1015.33
2022-10-12T12:30:30.575Z,1015.28
2022-10-12T12:31:30.542Z,1015.26
2022-10-12T12:32:30.536Z,1015.28
2022-10-12T12:33:30.491Z,1015.27
2022-10-12T12:34:30.682Z,1015.17
2022-10-12T12:35:30.490Z,1015.22
2022-10-12T12:36:30.514Z,1015.16
2022-10-12T12:37:30.485Z,1015.17
2022-10-12T12:38:30.468Z,1015.12
2022-10-12T12:39:30.442Z,1015.14
2022-10-12T12:40:30.441Z,1015.15
2022-10-12T12:41:30.447Z,1015.14
2022-10-12T12:42:30.412Z,1015.09
2022-10-12T12:43:30.399Z,1015.15
2022-10-12T12:44:30.419Z,1015.06
2022-10-12T12:45:30.372Z,1015.11
2022-10-12T12:46:30.456Z,1015.06
2022-10-12T12:47:45.036Z,1015.09
2022-10-12T12:48:30.352Z,1015.07
2022-10-12T12:49:30.355Z,1015.09
2022-10-12T12:50:30.312Z,1015.06
2022-10-12T12:51:30.293Z,1015.07
2022-10-12T12:52:30.281Z,1015.04
2022-10-12T12:53:30.278Z,1015.08
2022-10-12T12:54:30.273Z,1015.11
2022-10-12T12:55:30.266Z,1015.07
2022-10-12T12:56:30.244Z,1015.04
2022-10-12T12:57:30.227Z,1015.06
2022-10-12T12:58:30.220Z,1015.00
2022-10-12T12:59:30.249Z,1014.99
2022-10-12T13:00:31.732Z,1014.97
2022-10-12T13:01:30.225Z,1014.98
2022-10-12T13:02:30.186Z,1014.98
2022-10-12T13:03:30.163Z,1014.98
2022-10-12T13:04:30.180Z,1014.96
2022-10-12T13:05:30.159Z,1014.97
2022-10-12T13:06:30.170Z,1014.99
2022-10-12T13:07:30.371Z,1015.01
2022-10-12T13:08:30.169Z,1015.01
2022-10-12T13:09:30.119Z,1015.03
2022-10-12T13:10:30.075Z,1014.99
2022-10-12T13:11:30.058Z,1015.03
2022-10-12T13:12:30.068Z,1014.93
2022-10-12T13:13:30.030Z,1014.92
2022-10-12T13:14:30.194Z,1014.90
2022-10-12T13:15:30.008Z,1014.93
2022-10-12T13:17:23.331Z,1014.96
2022-10-12T13:17:35.191Z,1014.92
2022-10-12T13:18:46.431Z,1014.90
2022-10-12T13:19:30.035Z,1014.90
2022-10-12T13:20:29.968Z,1014.84
2022-10-12T13:21:29.970Z,1014.84
2022-10-12T13:22:30.291Z,1014.83
2022-10-12T13:23:30.127Z,1014.84
2022-10-12T13:24:29.974Z,1014.80
2022-10-12T13:25:29.930Z,1014.75
2022-10-12T13:26:29.908Z,1014.79
2022-10-12T13:27:30.172Z,1014.74
2022-10-12T13:28:29.924Z,1014.72
2022-10-12T13:29:29.908Z,1014.71
2022-10-12T13:30:29.856Z,1014.66
2022-10-12T13:31:29.850Z,1014.63
2022-10-12T13:32:30.028Z,1014.69
2022-10-12T13:33:32.302Z,1014.67
2022-10-12T13:34:29.833Z,1014.64
2022-10-12T13:35:29.816Z,1014.62
2022-10-12T13:36:29.823Z,1014.65
2022-10-12T13:37:29.912Z,1014.66
2022-10-12T13:38:29.779Z,1014.62
2022-10-12T13:39:29.789Z,1014.61
2022-10-12T13:40:29.898Z,1014.59
2022-10-12T13:41:29.769Z,1014.56
2022-10-12T13:42:29.717Z,1014.55
2022-10-12T13:43:29.713Z,1014.53
2022-10-12T13:44:29.712Z,1014.51
2022-10-12T13:45:29.767Z,1014.51
2022-10-12T13:46:29.710Z,1014.43
2022-10-12T13:47:29.858Z,1014.46
2022-10-12T13:48:57.563Z,1014.43
2022-10-12T13:49:29.704Z,1014.45
2022-10-12T13:50:29.640Z,1014.47
2022-10-12T13:51:29.651Z,1014.47
2022-10-12T13:52:32.278Z,1014.45
2022-10-12T13:53:29.603Z,1014.53
2022-10-12T13:54:29.669Z,1014.52
2022-10-12T13:55:29.619Z,1014.54
2022-10-12T13:56:29.566Z,1014.52
2022-10-12T13:57:29.932Z,1014.49
2022-10-12T13:58:29.537Z,1014.44
2022-10-12T13:59:29.560Z,1014.35
2022-10-12T14:00:29.565Z,1014.31
2022-10-12T14:01:29.578Z,1014.31
2022-10-12T14:02:29.519Z,1014.29
2022-10-12T14:03:29.490Z,1014.24
2022-10-12T14:04:29.649Z,1014.19
2022-10-12T14:05:29.483Z,1014.18
2022-10-12T14:06:29.465Z,1014.22
2022-10-12T14:07:29.479Z,1014.21
2022-10-12T14:08:29.437Z,1014.17
2022-10-12T14:09:29.444Z,1014.19
2022-10-12T14:10:29.408Z,1014.17
2022-10-12T14:11:29.409Z,1014.19
2022-10-12T14:12:29.406Z,1014.18
2022-10-12T14:13:29.393Z,1014.19
2022-10-12T14:14:29.376Z,1014.21
2022-10-12T14:15:29.368Z,1014.17
2022-10-12T14:16:29.371Z,1014.17
2022-10-12T14:17:29.327Z,1014.10
2022-10-12T14:18:29.340Z,1014.08
2022-10-12T14:19:29.338Z,1014.08
2022-10-12T14:20:29.330Z,1014.10
2022-10-12T14:21:33.271Z,1014.07
2022-10-12T14:22:29.286Z,1014.08
2022-10-12T14:23:29.286Z,1014.07
2022-10-12T14:24:29.266Z,1014.03
2022-10-12T14:25:29.272Z,1014.08
2022-10-12T14:26:29.239Z,1014.12
2022-10-12T14:27:29.228Z,1014.08
2022-10-12T14:28:29.275Z,1014.09
2022-10-12T14:29:29.243Z,1014.06
2022-10-12T14:30:29.221Z,1014.04
2022-10-12T14:31:29.175Z,1014.02
2022-10-12T14:32:29.196Z,1014.04
2022-10-12T14:33:29.160Z,1014.03
2022-10-12T14:34:29.190Z,1014.04
2022-10-12T14:35:29.138Z,1013.98
2022-10-12T14:36:29.126Z,1013.99
2022-10-12T14:37:29.149Z,1014.00
2022-10-12T14:38:29.093Z,1014.01
2022-10-12T14:39:29.136Z,1013.97
2022-10-12T14:40:29.141Z,1013.98
2022-10-12T14:41:29.064Z,1014.00
2022-10-12T14:42:29.086Z,1014.01
2022-10-12T14:43:29.063Z,1014.03
2022-10-12T14:44:29.083Z,1013.99
2022-10-12T14:45:29.044Z,1014.03
2022-10-12T14:46:29.033Z,1013.95
2022-10-12T14:47:28.994Z,1013.96
2022-10-12T14:48:28.965Z,1013.95
2022-10-12T14:49:29.027Z,1013.96
2022-10-12T14:50:28.989Z,1013.97
2022-10-12T14:51:28.960Z,1013.97
2022-10-12T14:52:28.961Z,1014.00
2022-10-12T14:53:28.934Z,1013.98
2022-10-12T14:54:28.960Z,1014.04
2022-10-12T14:55:28.930Z,1014.07
2022-10-12T14:56:28.903Z,1014.03
2022-10-12T14:57:28.896Z,1013.99
2022-10-12T14:58:28.912Z,1014.03
2022-10-12T14:59:28.929Z,1013.99
2022-10-12T15:00:28.866Z,1013.97
2022-10-12T15:01:28.911Z,1013.96
2022-10-12T15:02:28.831Z,1013.96
2022-10-12T15:03:28.875Z,1013.95
2022-10-12T15:04:29.032Z,1013.96
2022-10-12T15:05:28.773Z,1013.95
2022-10-12T15:06:28.804Z,1013.95
2022-10-12T15:07:28.838Z,1013.92
2022-10-12T15:08:28.796Z,1013.92
2022-10-12T15:09:28.785Z,1013.90
2022-10-12T15:10:28.736Z,1013.89
2022-10-12T15:11:28.724Z,1013.91
2022-10-12T15:12:28.731Z,1013.93
2022-10-12T15:13:28.767Z,1013.90
2022-10-12T15:14:28.719Z,1013.89
2022-10-12T15:15:29.227Z,1013.88
2022-10-12T15:16:28.712Z,1013.89
2022-10-12T15:17:28.656Z,1013.85
2022-10-12T15:18:28.649Z,1013.83
2022-10-12T15:19:28.708Z,1013.78
2022-10-12T15:20:28.641Z,1013.80
2022-10-12T15:21:28.668Z,1013.78
2022-10-12T15:22:28.640Z,1013.73
2022-10-12T15:23:28.616Z,1013.74
2022-10-12T15:24:28.641Z,1013.71
2022-10-12T15:25:28.582Z,1013.70
2022-10-12T15:26:28.562Z,1013.71
2022-10-12T15:27:28.546Z,1013.66
2022-10-12T15:28:28.646Z,1013.64
2022-10-12T15:29:28.546Z,1013.62
2022-10-12T15:30:28.537Z,1013.60
2022-10-12T15:31:28.592Z,1013.61
2022-10-12T15:32:28.476Z,1013.61
2022-10-12T15:33:28.509Z,1013.62
2022-10-12T15:34:28.514Z,1013.69
2022-10-12T15:35:28.507Z,1013.68
2022-10-12T15:36:28.441Z,1013.67
2022-10-12T15:37:28.443Z,1013.74
2022-10-12T15:38:28.457Z,1013.74
2022-10-12T15:39:28.423Z,1013.70
2022-10-12T15:40:28.476Z,1013.72
2022-10-12T15:41:28.427Z,1013.64
2022-10-12T15:42:28.404Z,1013.58
2022-10-12T15:43:28.407Z,1013.55
2022-10-12T15:44:28.381Z,1013.49
2022-10-12T15:45:28.415Z,1013.51
2022-10-12T15:46:28.335Z,1013.48
2022-10-12T15:47:28.333Z,1013.51
2022-10-12T15:48:28.343Z,1013.52
2022-10-12T15:49:28.281Z,1013.50
2022-10-12T15:50:28.304Z,1013.51
2022-10-12T15:51:28.285Z,1013.50
2022-10-12T15:52:28.289Z,1013.45
2022-10-12T15:53:28.349Z,1013.48
2022-10-12T15:54:28.287Z,1013.49
2022-10-12T15:55:28.279Z,1013.45
2022-10-12T15:56:28.240Z,1013.46
2022-10-12T15:57:28.230Z,1013.49
2022-10-12T15:58:28.216Z,1013.47
2022-10-12T15:59:28.233Z,1013.45
2022-10-12T16:00:28.240Z,1013.48
2022-10-12T16:01:28.338Z,1013.44
2022-10-12T16:02:28.148Z,1013.44
2022-10-12T16:03:28.132Z,1013.45
2022-10-12T16:04:28.157Z,1013.42
2022-10-12T16:05:28.212Z,1013.44
2022-10-12T16:06:28.116Z,1013.39
2022-10-12T16:07:28.092Z,1013.44
2022-10-12T16:08:28.086Z,1013.41
2022-10-12T16:09:28.142Z,1013.44
2022-10-12T16:10:28.110Z,1013.43
2022-10-12T16:11:28.117Z,1013.46
2022-10-12T16:12:28.047Z,1013.49
2022-10-12T16:13:28.114Z,1013.47
2022-10-12T16:14:28.035Z,1013.50
2022-10-12T16:15:28.088Z,1013.44
2022-10-12T16:16:27.990Z,1013.45
2022-10-12T16:17:27.990Z,1013.42
2022-10-12T16:18:28.813Z,1013.47
2022-10-12T16:19:27.985Z,1013.48
2022-10-12T16:20:28.032Z,1013.49
2022-10-12T16:21:27.973Z,1013.45
2022-10-12T16:22:27.948Z,1013.46
2022-10-12T16:23:27.939Z,1013.50
2022-10-12T16:24:27.907Z,1013.53
2022-10-12T16:25:27.938Z,1013.54
2022-10-12T16:26:27.923Z,1013.54
2022-10-12T16:27:27.912Z,1013.54
2022-10-12T16:28:27.924Z,1013.52
2022-10-12T16:29:27.852Z,1013.48
2022-10-12T16:30:27.906Z,1013.51
2022-10-12T16:31:27.902Z,1013.54
2022-10-12T16:32:27.829Z,1013.51
2022-10-12T16:33:27.842Z,1013.53
2022-10-12T16:34:27.872Z,1013.51
2022-10-12T16:35:27.832Z,1013.61
2022-10-12T16:36:27.760Z,1013.52
2022-10-12T16:37:27.848Z,1013.53
2022-10-12T16:38:28.267Z,1013.55
2022-10-12T16:39:27.744Z,1013.54
2022-10-12T16:40:27.805Z,1013.51
2022-10-12T16:41:30.388Z,1013.46
2022-10-12T16:42:27.716Z,1013.41
2022-10-12T16:43:27.723Z,1013.39
2022-10-12T16:44:27.696Z,1013.32
2022-10-12T16:45:27.739Z,1013.30
2022-10-12T16:46:27.662Z,1013.30
2022-10-12T16:47:27.647Z,1013.31
2022-10-12T16:48:27.639Z,1013.39
2022-10-12T16:49:27.671Z,1013.44
2022-10-12T16:50:27.647Z,1013.43
2022-10-12T16:51:27.812Z,1013.41
2022-10-12T16:52:28.412Z,1013.40
2022-10-12T16:53:27.585Z,1013.39
2022-10-12T16:54:27.638Z,1013.54
2022-10-12T16:55:27.579Z,1013.59
2022-10-12T16:56:27.539Z,1013.61
2022-10-12T16:57:27.566Z,1013.57
2022-10-12T16:58:27.578Z,1013.54
2022-10-12T16:59:27.583Z,1013.58
2022-10-12T17:00:27.840Z,1013.59
2022-10-12T17:01:27.520Z,1013.54
2022-10-12T17:02:27.513Z,1013.50
2022-10-12T17:03:27.494Z,1013.49
2022-10-12T17:04:27.534Z,1013.46
2022-10-12T17:05:27.476Z,1013.48
2022-10-12T17:06:27.440Z,1013.54
2022-10-12T17:07:27.447Z,1013.58
2022-10-12T17:08:27.398Z,1013.60
2022-10-12T17:09:27.440Z,1013.60
2022-10-12T17:10:27.443Z,1013.62
2022-10-12T17:11:27.380Z,1013.68
2022-10-12T17:12:27.377Z,1013.71
2022-10-12T17:13:27.397Z,1013.74
2022-10-12T17:14:27.415Z,1013.79
2022-10-12T17:15:27.374Z,1013.81
2022-10-12T17:16:27.387Z,1013.77
2022-10-12T17:17:27.331Z,1013.73
2022-10-12T17:18:27.325Z,1013.68
2022-10-12T17:19:27.284Z,1013.67
2022-10-12T17:20:27.311Z,1013.69
2022-10-12T17:21:27.337Z,1013.66
2022-10-12T17:22:27.283Z,1013.67
2022-10-12T17:23:27.346Z,1013.64
2022-10-12T17:24:27.269Z,1013.60
2022-10-12T17:25:27.243Z,1013.57
2022-10-12T17:26:27.260Z,1013.63
2022-10-12T17:27:31.434Z,1013.65
2022-10-12T17:28:27.277Z,1013.61
2022-10-12T17:29:27.379Z,1013.63
2022-10-12T17:30:27.209Z,1013.58
2022-10-12T17:31:27.168Z,1013.60
2022-10-12T17:32:27.169Z,1013.65
2022-10-12T17:33:27.148Z,1013.72
2022-10-12T17:34:27.146Z,1013.79
2022-10-12T17:35:27.171Z,1013.76
2022-10-12T17:36:28.450Z,1013.74
2022-10-12T17:37:27.133Z,1013.69
2022-10-12T17:38:27.069Z,1013.69
2022-10-12T17:39:27.058Z,1013.72
2022-10-12T17:40:27.108Z,1013.76
2022-10-12T17:41:27.097Z,1013.75
2022-10-12T17:42:27.093Z,1013.79
2022-10-12T17:43:27.070Z,1013.85
2022-10-12T17:44:27.080Z,1013.92
2022-10-12T17:45:27.073Z,1013.92
2022-10-12T17:46:27.060Z,1013.93
2022-10-12T17:47:26.998Z,1013.95
2022-10-12T17:48:27.004Z,1013.92
2022-10-12T17:49:26.985Z,1013.95
2022-10-12T17:50:27.014Z,1013.94
2022-10-12T17:51:26.946Z,1013.98
2022-10-12T17:52:26.945Z,1014.05
2022-10-12T17:53:26.926Z,1014.02
2022-10-12T17:54:26.911Z,1013.98
2022-10-12T17:55:43.873Z,1013.95
2022-10-12T17:56:26.887Z,1013.93
2022-10-12T17:57:26.930Z,1013.93
2022-10-12T17:58:26.874Z,1013.90
2022-10-12T17:59:26.914Z,1013.89
2022-10-12T18:00:26.905Z,1013.89
2022-10-12T18:01:26.923Z,1013.88
2022-10-12T18:02:26.835Z,1013.87
2022-10-12T18:03:26.814Z,1013.86
2022-10-12T18:04:26.815Z,1013.84
2022-10-12T18:05:26.956Z,1013.88
2022-10-12T18:06:26.772Z,1013.90
2022-10-12T18:07:26.840Z,1013.90
2022-10-12T18:08:26.802Z,1013.92
2022-10-12T18:09:26.761Z,1013.89
2022-10-12T18:10:28.535Z,1013.92
2022-10-12T18:11:26.705Z,1013.88
2022-10-12T18:12:26.720Z,1013.93
2022-10-12T18:13:26.689Z,1013.89
2022-10-12T18:14:26.667Z,1013.88
2022-10-12T18:15:26.744Z,1013.88
2022-10-12T18:16:26.655Z,1013.89
2022-10-12T18:17:26.648Z,1013.93
2022-10-12T18:18:26.651Z,1013.84
2022-10-12T18:19:26.652Z,1013.78
2022-10-12T18:20:26.644Z,1013.78
2022-10-12T18:21:26.616Z,1013.73
2022-10-12T18:22:26.615Z,1013.76
2022-10-12T18:23:26.575Z,1013.72
2022-10-12T18:24:26.558Z,1013.72
2022-10-12T18:25:26.622Z,1013.70
2022-10-12T18:26:26.530Z,1013.70
2022-10-12T18:27:26.543Z,1013.66
2022-10-12T18:28:26.597Z,1013.58
2022-10-12T18:29:26.539Z,1013.56
2022-10-12T18:30:26.548Z,1013.62
2022-10-12T18:31:26.481Z,1013.70
2022-10-12T18:32:26.475Z,1013.70
2022-10-12T18:33:26.478Z,1013.71
2022-10-12T18:34:26.464Z,1013.68
2022-10-12T18:35:26.477Z,1013.69
2022-10-12T18:36:26.452Z,1013.68
2022-10-12T18:37:26.403Z,1013.68
2022-10-12T18:38:26.437Z,1013.68
2022-10-12T18:39:26.391Z,1013.68
2022-10-12T18:40:26.425Z,1013.67
2022-10-12T18:41:26.381Z,1013.63
2022-10-12T18:42:26.346Z,1013.68
2022-10-12T18:43:26.345Z,1013.68
2022-10-12T18:44:26.327Z,1013.72
2022-10-12T18:45:26.373Z,1013.68
2022-10-12T18:46:26.327Z,1013.70
2022-10-12T18:47:26.319Z,1013.67
2022-10-12T18:48:26.321Z,1013.70
2022-10-12T18:49:26.326Z,1013.70
2022-10-12T18:50:26.298Z,1013.67
2022-10-12T18:51:26.262Z,1013.63
2022-10-12T18:52:26.246Z,1013.66
2022-10-12T18:53:26.229Z,1013.64
2022-10-12T18:54:26.252Z,1013.57
2022-10-12T18:55:26.239Z,1013.59